ADDS METAR Data INFO
IDs: Format: Raw Decoded Include TAF

Data at: 1213 UTC 24 Jun 2017

METAR for:GCLA (La Palma Arpt, --, CR)
Text:GCLA 241200Z 03013G27KT 350V090 CAVOK 25/20 Q1017
Temperature: 25.0°C ( 77°F)
Dewpoint: 20.0°C ( 68°F) [RH = 74%]
Pressure (altimeter):30.03 inches Hg (1017.0 mb)
Winds:from the NNE (30 degrees) at 15 MPH (13 knots; 6.7 m/s) gusting to 31 MPH (27 knots; 13.9 m/s)
Visibility:6 or more sm (10+ km)
Ceiling:ceiling and visibility are OK
Clouds:unknown


Page loaded:  12:13 UTC  |   05:13 AM Pacific  |   06:13 AM Mountain  |   07:13 AM Central  |   08:13 AM Eastern

 

ADVISORIES

FORECASTS

FORECASTS

OBSERVATIONS

USER TOOLS

ABOUT US